createdAt,value
2019-06-07T00:00:38.853Z,938.90
2019-06-07T00:01:22.545Z,938.90
2019-06-07T00:02:22.537Z,938.92
2019-06-07T00:03:29.116Z,938.89
2019-06-07T00:04:22.500Z,938.91
2019-06-07T00:05:22.502Z,938.91
2019-06-07T00:06:25.465Z,938.94
2019-06-07T00:07:22.457Z,938.92
2019-06-07T00:08:27.866Z,938.94
2019-06-07T00:09:22.854Z,938.93
2019-06-07T00:10:36.208Z,938.90
2019-06-07T00:11:22.408Z,938.89
2019-06-07T00:12:22.404Z,938.89
2019-06-07T00:13:22.608Z,938.89
2019-06-07T00:14:22.396Z,938.87
2019-06-07T00:15:28.710Z,938.88
2019-06-07T00:16:23.453Z,938.90
2019-06-07T00:17:22.337Z,938.87
2019-06-07T00:18:25.854Z,938.89
2019-06-07T00:19:22.322Z,938.90
2019-06-07T00:20:23.676Z,938.89
2019-06-07T00:22:12.340Z,938.90
2019-06-07T00:22:32.158Z,938.88
2019-06-07T00:23:22.907Z,938.87
2019-06-07T00:24:22.302Z,938.86
2019-06-07T00:25:24.443Z,938.90
2019-06-07T00:26:22.232Z,938.89
2019-06-07T00:27:22.604Z,938.91
2019-06-07T00:28:22.198Z,938.95
2019-06-07T00:29:22.274Z,938.96
2019-06-07T00:30:50.505Z,938.98
2019-06-07T00:31:24.079Z,938.95
2019-06-07T00:32:22.379Z,938.96
2019-06-07T00:33:24.751Z,938.97
2019-06-07T00:34:23.004Z,938.97
2019-06-07T00:35:22.527Z,938.97
2019-06-07T00:36:23.218Z,939.01
2019-06-07T00:37:25.219Z,938.96
2019-06-07T00:38:22.139Z,938.96
2019-06-07T00:39:25.290Z,938.92
2019-06-07T00:40:31.503Z,938.91
2019-06-07T00:41:22.297Z,938.94
2019-06-07T00:42:24.280Z,938.94
2019-06-07T00:43:27.973Z,938.95
2019-06-07T00:44:23.428Z,938.97
2019-06-07T00:45:24.467Z,938.96
2019-06-07T00:46:25.291Z,938.96
2019-06-07T00:47:25.032Z,938.92
2019-06-07T00:48:31.773Z,938.92
2019-06-07T00:49:39.845Z,938.97
2019-06-07T00:50:24.103Z,938.93
2019-06-07T00:51:23.916Z,938.98
2019-06-07T00:53:12.832Z,938.98
2019-06-07T00:53:31.819Z,939.01
2019-06-07T00:54:24.060Z,939.01
2019-06-07T00:55:27.075Z,939.00
2019-06-07T00:56:23.389Z,938.99
2019-06-07T00:57:24.129Z,939.01
2019-06-07T00:58:27.165Z,939.00
2019-06-07T00:59:28.414Z,938.98
2019-06-07T01:00:23.605Z,939.00
2019-06-07T01:01:24.874Z,938.96
2019-06-07T01:02:25.915Z,938.92
2019-06-07T01:03:25.193Z,938.98
2019-06-07T01:04:23.683Z,938.97
2019-06-07T01:05:26.104Z,938.98
2019-06-07T01:06:24.474Z,939.01
2019-06-07T01:07:21.983Z,939.00
2019-06-07T01:08:22.741Z,939.01
2019-06-07T01:09:23.968Z,939.03
2019-06-07T01:10:51.099Z,939.02
2019-06-07T01:11:23.473Z,939.03
2019-06-07T01:12:23.578Z,938.97
2019-06-07T01:13:23.865Z,939.01
2019-06-07T01:14:24.059Z,939.02
2019-06-07T01:15:25.607Z,939.01
2019-06-07T01:16:23.438Z,938.99
2019-06-07T01:17:33.123Z,938.96
2019-06-07T01:18:41.169Z,938.98
2019-06-07T01:19:25.917Z,938.94
2019-06-07T01:20:24.206Z,938.94
2019-06-07T01:21:28.117Z,938.90
2019-06-07T01:22:23.581Z,938.96
2019-06-07T01:24:00.809Z,938.93
2019-06-07T01:24:24.539Z,938.90
2019-06-07T01:25:23.761Z,938.91
2019-06-07T01:26:23.787Z,938.93
2019-06-07T01:27:24.204Z,938.90
2019-06-07T01:28:24.318Z,938.88
2019-06-07T01:29:22.271Z,938.84
2019-06-07T01:30:24.112Z,938.85
2019-06-07T01:31:24.539Z,938.88
2019-06-07T01:32:23.878Z,938.86
2019-06-07T01:33:23.479Z,938.90
2019-06-07T01:34:25.181Z,938.90
2019-06-07T01:35:22.086Z,938.89
2019-06-07T01:36:22.358Z,938.84
2019-06-07T01:37:24.905Z,938.85
2019-06-07T01:38:23.889Z,938.85
2019-06-07T01:39:23.770Z,938.84
2019-06-07T01:40:28.851Z,938.84
2019-06-07T01:41:23.657Z,938.80
2019-06-07T01:42:22.638Z,938.83
2019-06-07T01:43:26.098Z,938.84
2019-06-07T01:44:25.218Z,938.81
2019-06-07T01:45:21.392Z,938.82
2019-06-07T01:46:23.355Z,938.79
2019-06-07T01:47:24.743Z,938.82
2019-06-07T01:48:23.611Z,938.81
2019-06-07T01:49:22.159Z,938.83
2019-06-07T01:50:24.375Z,938.82
2019-06-07T01:51:21.925Z,938.82
2019-06-07T01:52:23.513Z,938.82
2019-06-07T01:53:23.695Z,938.82
2019-06-07T01:55:23.626Z,938.75
2019-06-07T01:56:22.548Z,938.72
2019-06-07T01:57:38.444Z,938.72
2019-06-07T01:58:22.242Z,938.72
2019-06-07T01:59:22.899Z,938.76
2019-06-07T02:00:21.998Z,938.79
2019-06-07T02:01:21.670Z,938.76
2019-06-07T02:02:22.776Z,938.78
2019-06-07T02:03:22.280Z,938.76
2019-06-07T02:04:23.323Z,938.77
2019-06-07T02:05:23.155Z,938.74
2019-06-07T02:06:21.693Z,938.75
2019-06-07T02:07:25.820Z,938.72
2019-06-07T02:08:22.217Z,938.75
2019-06-07T02:09:21.023Z,938.74
2019-06-07T02:10:24.726Z,938.72
2019-06-07T02:11:22.004Z,938.76
2019-06-07T02:12:28.148Z,938.79
2019-06-07T02:13:21.210Z,938.79
2019-06-07T02:14:23.538Z,938.75
2019-06-07T02:15:23.008Z,938.80
2019-06-07T02:16:21.823Z,938.78
2019-06-07T02:17:24.008Z,938.76
2019-06-07T02:18:22.955Z,938.75
2019-06-07T02:19:22.011Z,938.68
2019-06-07T02:20:22.960Z,938.69
2019-06-07T02:21:23.179Z,938.69
2019-06-07T02:22:22.898Z,938.67
2019-06-07T02:23:23.164Z,938.69
2019-06-07T02:24:24.481Z,938.63
2019-06-07T02:25:41.931Z,938.63
2019-06-07T02:26:20.748Z,938.66
2019-06-07T02:27:20.829Z,938.64
2019-06-07T02:28:42.251Z,938.65
2019-06-07T02:29:20.703Z,938.62
2019-06-07T02:30:44.249Z,938.62
2019-06-07T02:31:21.716Z,938.64
2019-06-07T02:32:21.722Z,938.62
2019-06-07T02:33:25.810Z,938.63
2019-06-07T02:34:21.514Z,938.62
2019-06-07T02:35:25.623Z,938.59
2019-06-07T02:36:25.621Z,938.59
2019-06-07T02:37:21.604Z,938.60
2019-06-07T02:38:22.253Z,938.59
2019-06-07T02:39:23.314Z,938.60
2019-06-07T02:40:21.933Z,938.58
2019-06-07T02:41:22.908Z,938.59
2019-06-07T02:42:25.221Z,938.60
2019-06-07T02:43:22.077Z,938.57
2019-06-07T02:44:20.524Z,938.56
2019-06-07T02:45:20.514Z,938.55
2019-06-07T02:46:28.018Z,938.53
2019-06-07T02:47:20.481Z,938.48
2019-06-07T02:48:20.518Z,938.50
2019-06-07T02:49:20.564Z,938.48
2019-06-07T02:50:20.455Z,938.47
2019-06-07T02:51:20.439Z,938.47
2019-06-07T02:52:20.477Z,938.46
2019-06-07T02:53:20.404Z,938.50
2019-06-07T02:54:20.398Z,938.45
2019-06-07T02:55:20.388Z,938.46
2019-06-07T02:56:42.101Z,938.47
2019-06-07T02:57:20.356Z,938.47
2019-06-07T02:58:20.341Z,938.47
2019-06-07T02:59:42.172Z,938.50
2019-06-07T03:00:41.978Z,938.47
2019-06-07T03:01:20.304Z,938.52
2019-06-07T03:02:20.301Z,938.48
2019-06-07T03:03:21.947Z,938.51
2019-06-07T03:04:20.265Z,938.50
2019-06-07T03:05:20.289Z,938.47
2019-06-07T03:06:20.236Z,938.51
2019-06-07T03:07:20.228Z,938.48
2019-06-07T03:08:20.230Z,938.47
2019-06-07T03:09:20.182Z,938.49
2019-06-07T03:10:20.215Z,938.51
2019-06-07T03:11:20.192Z,938.49
2019-06-07T03:12:20.168Z,938.50
2019-06-07T03:13:20.144Z,938.47
2019-06-07T03:14:20.141Z,938.49
2019-06-07T03:15:32.773Z,938.48
2019-06-07T03:16:20.116Z,938.43
2019-06-07T03:17:20.097Z,938.39
2019-06-07T03:18:20.095Z,938.43
2019-06-07T03:19:20.075Z,938.41
2019-06-07T03:20:20.053Z,938.40
2019-06-07T03:21:20.055Z,938.37
2019-06-07T03:22:20.017Z,938.38
2019-06-07T03:23:20.034Z,938.39
2019-06-07T03:24:20.001Z,938.37
2019-06-07T03:25:19.991Z,938.36
2019-06-07T03:26:19.966Z,938.39
2019-06-07T03:27:44.168Z,938.37
2019-06-07T03:28:20.002Z,938.34
2019-06-07T03:29:19.962Z,938.40
2019-06-07T03:30:46.540Z,938.40
2019-06-07T03:31:19.956Z,938.39
2019-06-07T03:32:19.960Z,938.42
2019-06-07T03:33:19.894Z,938.37
2019-06-07T03:34:19.875Z,938.40
2019-06-07T03:35:19.875Z,938.43
2019-06-07T03:36:25.646Z,938.36
2019-06-07T03:37:19.842Z,938.39
2019-06-07T03:38:19.838Z,938.35
2019-06-07T03:39:19.924Z,938.37
2019-06-07T03:40:19.805Z,938.37
2019-06-07T03:41:19.787Z,938.35
2019-06-07T03:42:19.773Z,938.36
2019-06-07T03:43:19.754Z,938.36
2019-06-07T03:44:19.757Z,938.35
2019-06-07T03:45:19.723Z,938.35
2019-06-07T03:46:19.746Z,938.31
2019-06-07T03:47:19.717Z,938.32
2019-06-07T03:48:19.723Z,938.30
2019-06-07T03:49:19.688Z,938.29
2019-06-07T03:50:19.693Z,938.29
2019-06-07T03:51:25.202Z,938.29
2019-06-07T03:52:19.667Z,938.28
2019-06-07T03:53:19.633Z,938.29
2019-06-07T03:54:19.635Z,938.28
2019-06-07T03:55:19.623Z,938.31
2019-06-07T03:56:19.582Z,938.29
2019-06-07T03:57:19.603Z,938.29
2019-06-07T03:58:46.222Z,938.31
2019-06-07T03:59:19.577Z,938.32
2019-06-07T04:00:19.544Z,938.30
2019-06-07T04:01:19.532Z,938.31
2019-06-07T04:02:19.518Z,938.28
2019-06-07T04:03:33.273Z,938.31
2019-06-07T04:04:19.489Z,938.30
2019-06-07T04:05:19.487Z,938.32
2019-06-07T04:06:19.491Z,938.31
2019-06-07T04:07:19.474Z,938.26
2019-06-07T04:08:19.541Z,938.26
2019-06-07T04:09:19.482Z,938.28
2019-06-07T04:10:19.434Z,938.20
2019-06-07T04:11:19.419Z,938.25
2019-06-07T04:12:19.419Z,938.25
2019-06-07T04:13:19.443Z,938.26
2019-06-07T04:14:19.591Z,938.21
2019-06-07T04:15:24.407Z,938.21
2019-06-07T04:16:25.609Z,938.23
2019-06-07T04:17:19.337Z,938.21
2019-06-07T04:18:19.316Z,938.19
2019-06-07T04:19:19.312Z,938.20
2019-06-07T04:20:19.311Z,938.21
2019-06-07T04:21:19.308Z,938.18
2019-06-07T04:22:19.284Z,938.19
2019-06-07T04:23:29.988Z,938.20
2019-06-07T04:24:19.247Z,938.21
2019-06-07T04:25:19.244Z,938.19
2019-06-07T04:26:19.247Z,938.18
2019-06-07T04:27:19.203Z,938.20
2019-06-07T04:28:19.207Z,938.19
2019-06-07T04:29:56.850Z,938.20
2019-06-07T04:30:19.169Z,938.17
2019-06-07T04:31:19.155Z,938.16
2019-06-07T04:32:19.147Z,938.18
2019-06-07T04:33:19.175Z,938.21
2019-06-07T04:34:19.129Z,938.17
2019-06-07T04:35:19.138Z,938.14
2019-06-07T04:36:37.317Z,938.15
2019-06-07T04:37:19.082Z,938.15
2019-06-07T04:38:19.073Z,938.09
2019-06-07T04:39:19.303Z,938.07
2019-06-07T04:40:19.054Z,938.09
2019-06-07T04:41:19.042Z,938.08
2019-06-07T04:42:19.018Z,938.03
2019-06-07T04:43:18.999Z,938.02
2019-06-07T04:44:19.003Z,938.01
2019-06-07T04:45:34.020Z,938.02
2019-06-07T04:46:19.006Z,938.00
2019-06-07T04:47:18.997Z,938.03
2019-06-07T04:48:18.955Z,938.02
2019-06-07T04:49:18.967Z,938.03
2019-06-07T04:50:18.941Z,938.00
2019-06-07T04:51:18.913Z,937.97
2019-06-07T04:52:18.902Z,937.96
2019-06-07T04:53:18.875Z,937.98
2019-06-07T04:54:18.882Z,937.99
2019-06-07T04:55:18.862Z,937.95
2019-06-07T04:56:18.837Z,937.99
2019-06-07T04:57:18.851Z,937.93
2019-06-07T04:58:18.817Z,937.90
2019-06-07T05:00:00.426Z,937.92
2019-06-07T05:00:48.770Z,937.88
2019-06-07T05:01:27.232Z,937.89
2019-06-07T05:02:18.779Z,937.84
2019-06-07T05:03:18.765Z,937.85
2019-06-07T05:04:18.795Z,937.89
2019-06-07T05:05:18.745Z,937.86
2019-06-07T05:06:18.709Z,937.85
2019-06-07T05:07:18.712Z,937.82
2019-06-07T05:08:28.142Z,937.88
2019-06-07T05:09:18.724Z,937.85
2019-06-07T05:10:18.675Z,937.84
2019-06-07T05:11:18.699Z,937.87
2019-06-07T05:12:18.647Z,937.85
2019-06-07T05:13:18.630Z,937.86
2019-06-07T05:14:18.630Z,937.84
2019-06-07T05:15:18.590Z,937.89
2019-06-07T05:16:18.590Z,937.86
2019-06-07T05:17:18.580Z,937.88
2019-06-07T05:18:18.552Z,937.88
2019-06-07T05:19:18.533Z,937.83
2019-06-07T05:20:18.528Z,937.86
2019-06-07T05:21:18.533Z,937.82
2019-06-07T05:22:18.499Z,937.84
2019-06-07T05:23:59.952Z,937.82
2019-06-07T05:24:18.486Z,937.81
2019-06-07T05:25:18.465Z,937.81
2019-06-07T05:26:18.476Z,937.82
2019-06-07T05:27:18.480Z,937.82
2019-06-07T05:28:18.440Z,937.82
2019-06-07T05:29:18.470Z,937.82
2019-06-07T05:30:56.417Z,937.82
2019-06-07T05:31:18.436Z,937.80
2019-06-07T05:32:18.369Z,937.77
2019-06-07T05:33:18.356Z,937.80
2019-06-07T05:34:18.358Z,937.77
2019-06-07T05:35:18.354Z,937.82
2019-06-07T05:36:18.341Z,937.80
2019-06-07T05:37:18.341Z,937.76
2019-06-07T05:38:18.322Z,937.74
2019-06-07T05:39:18.306Z,937.77
2019-06-07T05:40:18.294Z,937.74
2019-06-07T05:41:18.266Z,937.74
2019-06-07T05:42:18.248Z,937.81
2019-06-07T05:43:18.282Z,937.78
2019-06-07T05:44:18.223Z,937.81
2019-06-07T05:45:18.204Z,937.78
2019-06-07T05:46:18.202Z,937.80
2019-06-07T05:47:18.208Z,937.77
2019-06-07T05:48:18.170Z,937.78
2019-06-07T05:49:18.175Z,937.76
2019-06-07T05:50:38.396Z,937.75
2019-06-07T05:51:18.157Z,937.76
2019-06-07T05:52:18.125Z,937.75
2019-06-07T05:53:18.107Z,937.76
2019-06-07T05:54:18.123Z,937.73
2019-06-07T05:55:18.109Z,937.76
2019-06-07T05:56:18.145Z,937.73
2019-06-07T05:57:18.061Z,937.77
2019-06-07T05:58:18.127Z,937.74
2019-06-07T05:59:18.038Z,937.75
2019-06-07T06:00:18.017Z,937.78
2019-06-07T06:02:22.690Z,937.77
2019-06-07T06:03:17.980Z,937.81
2019-06-07T06:04:17.975Z,937.82
2019-06-07T06:05:32.342Z,937.79
2019-06-07T06:06:18.137Z,937.77
2019-06-07T06:07:17.975Z,937.77
2019-06-07T06:08:17.915Z,937.76
2019-06-07T06:09:17.922Z,937.83
2019-06-07T06:10:17.913Z,937.77
2019-06-07T06:11:17.864Z,937.76
2019-06-07T06:12:34.254Z,937.73
2019-06-07T06:13:17.849Z,937.72
2019-06-07T06:14:17.851Z,937.73
2019-06-07T06:15:17.848Z,937.74
2019-06-07T06:16:17.800Z,937.70
2019-06-07T06:17:17.813Z,937.70
2019-06-07T06:18:17.795Z,937.67
2019-06-07T06:19:17.770Z,937.69
2019-06-07T06:20:17.814Z,937.70
2019-06-07T06:21:20.131Z,937.68
2019-06-07T06:22:17.750Z,937.67
2019-06-07T06:23:17.731Z,937.66
2019-06-07T06:24:17.725Z,937.64
2019-06-07T06:25:31.584Z,937.66
2019-06-07T06:26:17.698Z,937.66
2019-06-07T06:27:55.680Z,937.67
2019-06-07T06:28:17.670Z,937.67
2019-06-07T06:29:17.645Z,937.66
2019-06-07T06:30:17.643Z,937.61
2019-06-07T06:31:17.637Z,937.66
2019-06-07T06:32:48.871Z,937.61
2019-06-07T06:33:33.241Z,937.64
2019-06-07T06:34:17.586Z,937.65
2019-06-07T06:35:17.563Z,937.61
2019-06-07T06:36:17.717Z,937.63
2019-06-07T06:37:17.587Z,937.63
2019-06-07T06:38:17.532Z,937.62
2019-06-07T06:39:17.613Z,937.62
2019-06-07T06:40:17.515Z,937.60
2019-06-07T06:41:17.536Z,937.65
2019-06-07T06:42:17.495Z,937.64
2019-06-07T06:43:17.460Z,937.60
2019-06-07T06:44:17.438Z,937.59
2019-06-07T06:45:17.437Z,937.59
2019-06-07T06:46:37.554Z,937.59
2019-06-07T06:47:17.427Z,937.60
2019-06-07T06:48:17.449Z,937.59
2019-06-07T06:49:17.382Z,937.58
2019-06-07T06:50:17.363Z,937.62
2019-06-07T06:51:17.369Z,937.61
2019-06-07T06:52:17.331Z,937.58
2019-06-07T06:53:17.344Z,937.59
2019-06-07T06:54:38.951Z,937.56
2019-06-07T06:55:17.308Z,937.57
2019-06-07T06:56:17.278Z,937.53
2019-06-07T06:57:19.919Z,937.53
2019-06-07T06:58:17.278Z,937.53
2019-06-07T07:00:17.253Z,937.52
2019-06-07T07:01:17.247Z,937.53
2019-06-07T07:02:17.210Z,937.58
2019-06-07T07:04:17.222Z,937.54
2019-06-07T07:05:17.174Z,937.57
2019-06-07T07:06:26.082Z,937.53
2019-06-07T07:07:17.147Z,937.52
2019-06-07T07:08:17.141Z,937.53
2019-06-07T07:09:17.126Z,937.52
2019-06-07T07:10:17.110Z,937.55
2019-06-07T07:11:17.087Z,937.55
2019-06-07T07:12:17.081Z,937.51
2019-06-07T07:13:17.067Z,937.50
2019-06-07T07:14:17.065Z,937.49
2019-06-07T07:15:17.044Z,937.48
2019-06-07T07:16:17.028Z,937.45
2019-06-07T07:17:17.029Z,937.44
2019-06-07T07:18:16.996Z,937.46
2019-06-07T07:19:17.005Z,937.49
2019-06-07T07:20:16.979Z,937.47
2019-06-07T07:21:16.952Z,937.46
2019-06-07T07:22:16.958Z,937.46
2019-06-07T07:23:17.383Z,937.44
2019-06-07T07:24:21.582Z,937.47
2019-06-07T07:25:16.922Z,937.45
2019-06-07T07:26:16.914Z,937.40
2019-06-07T07:27:16.900Z,937.43
2019-06-07T07:28:16.880Z,937.41
2019-06-07T07:29:16.870Z,937.42
2019-06-07T07:30:36.177Z,937.42
2019-06-07T07:31:16.819Z,937.41
2019-06-07T07:32:16.834Z,937.46
2019-06-07T07:33:16.952Z,937.49
2019-06-07T07:34:36.642Z,937.47
2019-06-07T07:35:16.793Z,937.48
2019-06-07T07:36:35.577Z,937.50
2019-06-07T07:37:16.761Z,937.51
2019-06-07T07:38:16.732Z,937.54
2019-06-07T07:39:17.312Z,937.51
2019-06-07T07:41:16.762Z,937.48
2019-06-07T07:42:21.345Z,937.50
2019-06-07T07:43:16.752Z,937.52
2019-06-07T07:44:16.683Z,937.48
2019-06-07T07:45:16.669Z,937.48
2019-06-07T07:46:31.063Z,937.51
2019-06-07T07:47:16.635Z,937.50
2019-06-07T07:48:18.464Z,937.52
2019-06-07T07:49:16.585Z,937.53
2019-06-07T07:50:16.594Z,937.52
2019-06-07T07:51:16.565Z,937.53
2019-06-07T07:52:16.567Z,937.54
2019-06-07T07:53:16.567Z,937.54
2019-06-07T07:54:16.532Z,937.55
2019-06-07T07:55:16.590Z,937.53
2019-06-07T07:56:16.494Z,937.53
2019-06-07T07:57:16.502Z,937.53
2019-06-07T07:58:16.530Z,937.52
2019-06-07T07:59:16.453Z,937.53
2019-06-07T08:00:49.709Z,937.55
2019-06-07T08:01:16.425Z,937.51
2019-06-07T08:02:16.439Z,937.51
2019-06-07T08:03:16.396Z,937.52
2019-06-07T08:04:16.389Z,937.51
2019-06-07T08:05:28.758Z,937.52
2019-06-07T08:06:16.363Z,937.54
2019-06-07T08:07:16.365Z,937.56
2019-06-07T08:08:16.348Z,937.57
2019-06-07T08:09:16.342Z,937.57
2019-06-07T08:10:16.330Z,937.56
2019-06-07T08:11:16.298Z,937.54
2019-06-07T08:12:16.332Z,937.55
2019-06-07T08:13:24.927Z,937.57
2019-06-07T08:14:16.284Z,937.56
2019-06-07T08:15:16.253Z,937.57
2019-06-07T08:16:18.719Z,937.51
2019-06-07T08:17:16.237Z,937.57
2019-06-07T08:18:16.201Z,937.54
2019-06-07T08:19:16.196Z,937.59
2019-06-07T08:20:16.179Z,937.54
2019-06-07T08:21:25.975Z,937.55
2019-06-07T08:22:16.166Z,937.55
2019-06-07T08:23:16.139Z,937.54
2019-06-07T08:24:16.127Z,937.54
2019-06-07T08:25:16.120Z,937.57
2019-06-07T08:26:16.138Z,937.62
2019-06-07T08:27:25.986Z,937.61
2019-06-07T08:28:16.076Z,937.62
2019-06-07T08:29:16.040Z,937.61
2019-06-07T08:30:47.154Z,937.58
2019-06-07T08:31:16.043Z,937.58
2019-06-07T08:32:16.010Z,937.60
2019-06-07T08:33:26.051Z,937.56
2019-06-07T08:34:15.976Z,937.58
2019-06-07T08:36:02.577Z,937.59
2019-06-07T08:36:25.098Z,937.60
2019-06-07T08:37:15.952Z,937.62
2019-06-07T08:38:26.509Z,937.62
2019-06-07T08:39:15.924Z,937.64
2019-06-07T08:40:15.914Z,937.60
2019-06-07T08:41:15.912Z,937.61
2019-06-07T08:42:21.621Z,937.66
2019-06-07T08:43:20.870Z,937.61
2019-06-07T08:44:23.656Z,937.60
2019-06-07T08:45:15.882Z,937.63
2019-06-07T08:46:15.869Z,937.69
2019-06-07T08:47:20.540Z,937.63
2019-06-07T08:48:27.615Z,937.62
2019-06-07T08:49:15.783Z,937.63
2019-06-07T08:50:15.776Z,937.68
2019-06-07T08:51:15.793Z,937.68
2019-06-07T08:52:15.759Z,937.70
2019-06-07T08:53:15.730Z,937.73
2019-06-07T08:54:23.007Z,937.74
2019-06-07T08:55:15.745Z,937.72
2019-06-07T08:56:15.690Z,937.72
2019-06-07T08:57:21.097Z,937.74
2019-06-07T08:58:15.650Z,937.77
2019-06-07T08:59:15.694Z,937.75
2019-06-07T09:00:42.931Z,937.77
2019-06-07T09:01:15.621Z,937.80
2019-06-07T09:02:23.794Z,937.77
2019-06-07T09:03:15.585Z,937.76
2019-06-07T09:04:15.585Z,937.76
2019-06-07T09:05:15.607Z,937.78
2019-06-07T09:07:01.121Z,937.77
2019-06-07T09:07:20.006Z,937.78
2019-06-07T09:08:29.102Z,937.78
2019-06-07T09:09:15.530Z,937.78
2019-06-07T09:10:15.742Z,937.78
2019-06-07T09:11:15.480Z,937.80
2019-06-07T09:12:15.663Z,937.81
2019-06-07T09:13:15.462Z,937.82
2019-06-07T09:14:15.433Z,937.87
2019-06-07T09:15:23.254Z,937.81
2019-06-07T09:16:15.428Z,937.87
2019-06-07T09:17:15.458Z,937.84
2019-06-07T09:18:42.044Z,937.89
2019-06-07T09:19:15.365Z,937.88
2019-06-07T09:20:35.230Z,937.89
2019-06-07T09:21:15.343Z,937.93
2019-06-07T09:22:15.343Z,937.91
2019-06-07T09:23:17.118Z,937.98
2019-06-07T09:24:15.311Z,937.94
2019-06-07T09:25:21.018Z,937.98
2019-06-07T09:26:18.209Z,937.97
2019-06-07T09:27:15.269Z,937.99
2019-06-07T09:28:19.910Z,937.99
2019-06-07T09:29:15.242Z,938.04
2019-06-07T09:30:18.588Z,938.02
2019-06-07T09:31:15.249Z,938.02
2019-06-07T09:32:18.381Z,938.05
2019-06-07T09:33:15.176Z,938.06
2019-06-07T09:34:15.597Z,938.07
2019-06-07T09:35:17.548Z,938.08
2019-06-07T09:36:15.134Z,938.11
2019-06-07T09:38:02.772Z,938.11
2019-06-07T09:38:24.992Z,938.13
2019-06-07T09:39:15.100Z,938.16
2019-06-07T09:40:24.909Z,938.16
2019-06-07T09:41:15.062Z,938.18
2019-06-07T09:42:15.058Z,938.21
2019-06-07T09:44:25.107Z,938.24
2019-06-07T09:45:15.026Z,938.19
2019-06-07T09:47:20.665Z,938.22
2019-06-07T09:47:44.017Z,938.22
2019-06-07T09:49:44.011Z,938.25
2019-06-07T09:50:43.980Z,938.26
2019-06-07T09:51:43.973Z,938.33
2019-06-07T09:52:57.796Z,938.30
2019-06-07T09:53:43.958Z,938.33
2019-06-07T09:55:06.146Z,938.31
2019-06-07T09:55:43.931Z,938.34
2019-06-07T09:56:43.916Z,938.37
2019-06-07T09:57:43.875Z,938.38
2019-06-07T09:58:53.365Z,938.37
2019-06-07T09:59:43.855Z,938.40
2019-06-07T10:00:43.860Z,938.43
2019-06-07T10:01:43.834Z,938.44
2019-06-07T10:02:43.896Z,938.43
2019-06-07T10:03:43.815Z,938.44
2019-06-07T10:04:43.796Z,938.48
2019-06-07T10:05:43.782Z,938.50
2019-06-07T10:06:43.783Z,938.49
2019-06-07T10:07:59.570Z,938.51
2019-06-07T10:10:43.717Z,938.54
2019-06-07T10:11:43.737Z,938.48
2019-06-07T10:12:43.676Z,938.51
2019-06-07T10:13:43.675Z,938.54
2019-06-07T10:14:45.197Z,938.52
2019-06-07T10:15:43.650Z,938.55
2019-06-07T10:16:46.874Z,938.56
2019-06-07T10:17:43.620Z,938.61
2019-06-07T10:18:43.586Z,938.59
2019-06-07T10:19:43.570Z,938.63
2019-06-07T10:20:43.615Z,938.65
2019-06-07T10:21:43.572Z,938.65
2019-06-07T10:22:43.540Z,938.64
2019-06-07T10:23:43.517Z,938.65
2019-06-07T10:24:43.535Z,938.63
2019-06-07T10:25:43.514Z,938.63
2019-06-07T10:26:43.482Z,938.65
2019-06-07T10:27:43.470Z,938.64
2019-06-07T10:28:43.444Z,938.65
2019-06-07T10:29:43.443Z,938.69
2019-06-07T10:30:43.416Z,938.71
2019-06-07T10:31:43.439Z,938.71
2019-06-07T10:32:43.408Z,938.76
2019-06-07T10:33:43.426Z,938.77
2019-06-07T10:34:43.394Z,938.74
2019-06-07T10:35:43.357Z,938.76
2019-06-07T10:36:43.443Z,938.76
2019-06-07T10:37:43.333Z,938.75
2019-06-07T10:38:43.340Z,938.78
2019-06-07T10:39:48.485Z,938.79
2019-06-07T10:40:43.300Z,938.75
2019-06-07T10:41:43.306Z,938.78
2019-06-07T10:42:43.286Z,938.80
2019-06-07T10:43:43.253Z,938.80
2019-06-07T10:44:43.254Z,938.77
2019-06-07T10:45:43.249Z,938.80
2019-06-07T10:46:43.233Z,938.82
2019-06-07T10:47:43.200Z,938.81
2019-06-07T10:48:43.176Z,938.84
2019-06-07T10:49:43.205Z,938.86
2019-06-07T10:50:43.172Z,938.89
2019-06-07T10:51:43.158Z,938.87
2019-06-07T10:52:43.127Z,938.91
2019-06-07T10:53:43.108Z,938.94
2019-06-07T10:54:43.127Z,938.94
2019-06-07T10:55:43.107Z,938.96
2019-06-07T10:56:43.120Z,938.91
2019-06-07T10:57:43.079Z,938.90
2019-06-07T10:58:43.060Z,938.95
2019-06-07T10:59:43.021Z,938.94
2019-06-07T11:00:43.037Z,938.97
2019-06-07T11:01:43.017Z,938.95
2019-06-07T11:02:43.062Z,938.95
2019-06-07T11:03:43.015Z,938.96
2019-06-07T11:04:42.983Z,938.97
2019-06-07T11:05:42.961Z,938.98
2019-06-07T11:06:42.961Z,938.98
2019-06-07T11:07:42.936Z,939.03
2019-06-07T11:08:42.912Z,939.01
2019-06-07T11:09:42.907Z,939.00
2019-06-07T11:10:42.938Z,939.03
2019-06-07T11:11:42.898Z,939.04
2019-06-07T11:12:42.863Z,939.05
2019-06-07T11:13:42.847Z,939.09
2019-06-07T11:14:42.852Z,939.08
2019-06-07T11:15:42.829Z,939.01
2019-06-07T11:16:42.807Z,939.02
2019-06-07T11:17:42.839Z,939.01
2019-06-07T11:18:42.793Z,938.99
2019-06-07T11:19:42.781Z,939.02
2019-06-07T11:20:42.759Z,939.05
2019-06-07T11:21:42.758Z,939.06
2019-06-07T11:22:42.752Z,939.06
2019-06-07T11:23:42.731Z,939.02
2019-06-07T11:24:42.723Z,939.04
2019-06-07T11:25:42.679Z,939.05
2019-06-07T11:26:42.686Z,939.05
2019-06-07T11:27:42.681Z,939.04
2019-06-07T11:28:42.680Z,939.07
2019-06-07T11:29:42.647Z,939.09
2019-06-07T11:30:42.641Z,939.05
2019-06-07T11:31:42.598Z,939.10
2019-06-07T11:32:42.607Z,939.10
2019-06-07T11:33:42.614Z,939.10
2019-06-07T11:34:42.588Z,939.12
2019-06-07T11:35:42.567Z,939.18
2019-06-07T11:36:42.556Z,939.16
2019-06-07T11:37:42.552Z,939.20
2019-06-07T11:38:42.541Z,939.19
2019-06-07T11:39:42.528Z,939.24
2019-06-07T11:40:42.503Z,939.24
2019-06-07T11:41:42.478Z,939.24
2019-06-07T11:42:42.470Z,939.26
2019-06-07T11:43:42.465Z,939.27
2019-06-07T11:44:55.665Z,939.33
2019-06-07T11:45:42.659Z,939.33
2019-06-07T11:46:42.421Z,939.32
2019-06-07T11:47:42.411Z,939.34
2019-06-07T11:48:42.417Z,939.36
2019-06-07T11:49:42.391Z,939.38
2019-06-07T11:50:42.383Z,939.41
2019-06-07T11:51:42.379Z,939.42
2019-06-07T11:52:45.436Z,939.43
2019-06-07T11:53:42.368Z,939.40
2019-06-07T11:54:42.350Z,939.42
2019-06-07T11:55:42.328Z,939.42
2019-06-07T11:56:42.319Z,939.41
2019-06-07T11:57:42.326Z,939.43
2019-06-07T11:58:42.289Z,939.42
2019-06-07T11:59:42.263Z,939.41
2019-06-07T12:00:42.275Z,939.41
2019-06-07T12:01:42.248Z,939.42
2019-06-07T12:02:42.254Z,939.40
2019-06-07T12:03:42.242Z,939.48
2019-06-07T12:04:42.238Z,939.47
2019-06-07T12:05:42.226Z,939.48
2019-06-07T12:06:42.196Z,939.42
2019-06-07T12:07:42.244Z,939.48
2019-06-07T12:08:42.175Z,939.47
2019-06-07T12:09:55.508Z,939.50
2019-06-07T12:10:42.855Z,939.53
2019-06-07T12:11:42.144Z,939.52
2019-06-07T12:12:42.155Z,939.55
2019-06-07T12:13:42.124Z,939.54
2019-06-07T12:14:42.123Z,939.51
2019-06-07T12:15:42.375Z,939.53
2019-06-07T12:16:42.124Z,939.55
2019-06-07T12:17:42.163Z,939.55
2019-06-07T12:18:42.100Z,939.53
2019-06-07T12:19:42.085Z,939.58
2019-06-07T12:20:42.076Z,939.57
2019-06-07T12:21:42.059Z,939.53
2019-06-07T12:22:42.062Z,939.60
2019-06-07T12:23:42.033Z,939.63
2019-06-07T12:24:42.024Z,939.63
2019-06-07T12:25:42.049Z,939.63
2019-06-07T12:26:42.032Z,939.65
2019-06-07T12:27:42.015Z,939.64
2019-06-07T12:28:41.981Z,939.66
2019-06-07T12:29:41.983Z,939.66
2019-06-07T12:30:41.989Z,939.65
2019-06-07T12:31:41.979Z,939.66
2019-06-07T12:32:41.962Z,939.70
2019-06-07T12:33:41.964Z,939.67
2019-06-07T12:34:41.990Z,939.67
2019-06-07T12:35:41.977Z,939.68
2019-06-07T12:36:41.918Z,939.73
2019-06-07T12:37:44.558Z,939.71